createdAt,value
2023-05-06T00:01:15.888Z,75.07
2023-05-06T00:03:42.817Z,81.60
2023-05-06T00:06:09.963Z,82.03
2023-05-06T00:08:36.958Z,74.70
2023-05-06T00:11:03.742Z,78.60
2023-05-06T00:13:30.501Z,74.70
2023-05-06T00:15:57.400Z,70.63
2023-05-06T00:18:24.163Z,74.10
2023-05-06T00:20:50.915Z,83.53
2023-05-06T00:23:17.649Z,82.77
2023-05-06T00:25:44.432Z,85.07
2023-05-06T00:28:11.171Z,89.87
2023-05-06T00:30:37.920Z,84.97
2023-05-06T00:33:04.771Z,91.03
2023-05-06T00:35:31.587Z,81.27
2023-05-06T00:38:06.676Z,75.83
2023-05-06T00:40:33.462Z,74.90
2023-05-06T00:43:00.200Z,72.77
2023-05-06T00:45:27.073Z,74.00
2023-05-06T00:47:54.313Z,72.27
2023-05-06T00:50:22.368Z,68.30
2023-05-06T00:52:49.886Z,68.97
2023-05-06T00:55:17.389Z,70.33
2023-05-06T00:57:44.224Z,75.33
2023-05-06T01:00:11.848Z,76.17
2023-05-06T01:02:47.131Z,76.13
2023-05-06T01:05:17.820Z,79.40
2023-05-06T01:08:17.683Z,77.53
2023-05-06T01:10:56.179Z,79.30
2023-05-06T01:13:56.361Z,79.70
2023-05-06T01:16:25.319Z,78.23
2023-05-06T01:18:53.589Z,76.93
2023-05-06T01:21:22.043Z,77.43
2023-05-06T01:23:57.964Z,76.93
2023-05-06T01:26:25.477Z,80.93
2023-05-06T01:28:52.902Z,77.27
2023-05-06T01:31:57.571Z,75.43
2023-05-06T01:34:38.905Z,77.87
2023-05-06T01:37:23.129Z,76.20
2023-05-06T01:39:51.873Z,78.77
2023-05-06T01:42:19.490Z,80.60
2023-05-06T01:44:48.842Z,75.17
2023-05-06T01:47:15.783Z,78.43
2023-05-06T01:49:42.847Z,77.53
2023-05-06T01:52:11.182Z,77.57
2023-05-06T01:54:37.955Z,79.43
2023-05-06T01:57:04.716Z,83.60
2023-05-06T01:59:32.375Z,81.47
2023-05-06T02:01:59.197Z,82.97
2023-05-06T02:04:26.094Z,85.13
2023-05-06T02:06:53.017Z,87.43
2023-05-06T02:09:20.565Z,88.30
2023-05-06T02:11:53.374Z,87.50
2023-05-06T02:14:20.159Z,88.93
2023-05-06T02:16:47.008Z,82.20
2023-05-06T02:19:14.847Z,87.03
2023-05-06T02:21:42.814Z,88.23
2023-05-06T02:24:09.576Z,86.73
2023-05-06T02:26:36.385Z,90.43
2023-05-06T02:29:04.253Z,88.50
2023-05-06T02:31:31.660Z,87.77
2023-05-06T02:33:58.475Z,88.23
2023-05-06T02:36:25.237Z,88.77
2023-05-06T02:38:54.493Z,87.87
2023-05-06T02:41:21.319Z,87.63
2023-05-06T02:43:48.110Z,88.90
2023-05-06T02:46:14.966Z,84.60
2023-05-06T02:48:42.003Z,85.40
2023-05-06T02:51:08.860Z,83.23
2023-05-06T02:53:35.940Z,84.67
2023-05-06T02:56:03.008Z,79.87
2023-05-06T02:58:29.741Z,85.30
2023-05-06T03:00:56.784Z,81.60
2023-05-06T03:03:23.571Z,80.27
2023-05-06T03:05:50.379Z,84.13
2023-05-06T03:08:17.194Z,84.00
2023-05-06T03:10:44.180Z,80.80
2023-05-06T03:13:11.330Z,84.23
2023-05-06T03:15:38.116Z,82.37
2023-05-06T03:18:04.974Z,85.40
2023-05-06T03:20:32.128Z,81.83
2023-05-06T03:23:00.287Z,83.57
2023-05-06T03:25:27.086Z,78.13
2023-05-06T03:27:55.065Z,79.57
2023-05-06T03:30:23.253Z,80.33
2023-05-06T03:32:56.773Z,78.83
2023-05-06T03:35:29.573Z,81.13
2023-05-06T03:37:58.915Z,80.93
2023-05-06T03:40:31.165Z,81.40
2023-05-06T03:42:58.355Z,82.73
2023-05-06T03:45:26.743Z,83.57
2023-05-06T03:47:54.506Z,87.50
2023-05-06T03:50:23.150Z,84.70
2023-05-06T03:52:52.001Z,85.47
2023-05-06T03:55:20.467Z,84.67
2023-05-06T03:57:48.147Z,86.97
2023-05-06T04:00:15.525Z,84.57
2023-05-06T04:02:49.440Z,87.43
2023-05-06T04:05:23.569Z,89.23
2023-05-06T04:07:50.946Z,85.70
2023-05-06T04:10:18.271Z,91.07
2023-05-06T04:12:48.934Z,87.77
2023-05-06T04:15:21.576Z,88.27
2023-05-06T04:17:49.034Z,90.03
2023-05-06T04:20:16.140Z,87.37
2023-05-06T04:22:42.965Z,85.63
2023-05-06T04:25:10.780Z,84.30
2023-05-06T04:27:38.521Z,82.73
2023-05-06T04:30:08.459Z,80.17
2023-05-06T04:32:38.836Z,83.90
2023-05-06T04:35:07.621Z,82.20
2023-05-06T04:37:35.106Z,83.23
2023-05-06T04:40:09.269Z,83.87
2023-05-06T04:42:38.870Z,82.30
2023-05-06T04:45:11.772Z,85.30
2023-05-06T04:47:41.163Z,85.73
2023-05-06T04:50:09.503Z,85.83
2023-05-06T04:52:36.508Z,82.33
2023-05-06T04:55:04.484Z,86.00
2023-05-06T04:57:34.267Z,83.87
2023-05-06T05:00:02.692Z,83.83
2023-05-06T05:02:29.866Z,83.93
2023-05-06T05:04:56.727Z,81.17
2023-05-06T05:07:23.676Z,84.73
2023-05-06T05:09:50.646Z,84.57
2023-05-06T05:12:17.436Z,76.37
2023-05-06T05:14:47.712Z,79.60
2023-05-06T05:17:15.496Z,78.50
2023-05-06T05:19:42.731Z,74.97
2023-05-06T05:22:11.165Z,73.20
2023-05-06T05:24:39.496Z,75.57
2023-05-06T05:27:06.254Z,77.23
2023-05-06T05:29:33.722Z,79.60
2023-05-06T05:32:02.949Z,82.63
2023-05-06T05:34:30.423Z,83.00
2023-05-06T05:36:58.089Z,82.00
2023-05-06T05:39:25.877Z,86.40
2023-05-06T05:41:53.366Z,87.13
2023-05-06T05:44:21.003Z,83.80
2023-05-06T05:46:48.533Z,79.50
2023-05-06T05:49:18.967Z,79.60
2023-05-06T05:51:45.871Z,79.00
2023-05-06T05:54:16.609Z,81.73
2023-05-06T05:56:43.405Z,82.00
2023-05-06T05:59:10.966Z,79.17
2023-05-06T06:01:38.180Z,77.30
2023-05-06T06:04:06.678Z,78.10
2023-05-06T06:06:33.596Z,78.13
2023-05-06T06:09:00.609Z,80.50
2023-05-06T06:11:28.985Z,81.60
2023-05-06T06:13:56.015Z,80.50
2023-05-06T06:16:22.993Z,81.93
2023-05-06T06:18:50.046Z,86.03
2023-05-06T06:21:18.017Z,83.77
2023-05-06T06:23:45.892Z,83.63
2023-05-06T06:26:12.812Z,83.57
2023-05-06T06:28:39.861Z,88.00
2023-05-06T06:31:06.636Z,83.03
2023-05-06T06:33:33.435Z,85.53
2023-05-06T06:36:00.484Z,87.20
2023-05-06T06:38:27.554Z,87.10
2023-05-06T06:40:54.482Z,84.60
2023-05-06T06:43:21.245Z,86.33
2023-05-06T06:45:48.264Z,87.13
2023-05-06T06:48:15.568Z,88.57
2023-05-06T06:50:42.863Z,87.33
2023-05-06T06:53:10.884Z,87.20
2023-05-06T06:55:37.775Z,90.90
2023-05-06T06:58:04.662Z,92.13
2023-05-06T07:00:31.524Z,90.17
2023-05-06T07:02:58.497Z,94.50
2023-05-06T07:05:27.036Z,97.23
2023-05-06T07:07:54.457Z,94.90
2023-05-06T07:10:21.904Z,88.30
2023-05-06T07:12:48.860Z,92.43
2023-05-06T07:15:15.714Z,89.13
2023-05-06T07:17:42.834Z,87.67
2023-05-06T07:20:10.412Z,84.07
2023-05-06T07:22:37.186Z,83.83
2023-05-06T07:25:04.208Z,80.63
2023-05-06T07:27:31.018Z,82.10
2023-05-06T07:29:57.891Z,85.97
2023-05-06T07:32:24.752Z,85.27
2023-05-06T07:34:51.513Z,85.83
2023-05-06T07:37:18.359Z,84.77
2023-05-06T07:39:45.497Z,90.70
2023-05-06T07:42:13.108Z,83.63
2023-05-06T07:44:40.341Z,82.37
2023-05-06T07:47:07.686Z,88.07
2023-05-06T07:49:35.251Z,88.23
2023-05-06T07:52:03.435Z,90.77
2023-05-06T07:54:31.691Z,94.53
2023-05-06T07:56:58.919Z,93.37
2023-05-06T07:59:25.736Z,99.67
2023-05-06T08:01:52.590Z,96.53
2023-05-06T08:04:19.431Z,104.17
2023-05-06T08:06:46.537Z,93.73
2023-05-06T08:09:22.333Z,97.87
2023-05-06T08:11:50.708Z,96.33
2023-05-06T08:14:17.601Z,97.77
2023-05-06T08:16:44.630Z,96.40
2023-05-06T08:19:11.505Z,100.07
2023-05-06T08:21:38.285Z,84.37
2023-05-06T08:24:05.179Z,86.50
2023-05-06T08:26:31.979Z,93.27
2023-05-06T08:28:59.596Z,89.50
2023-05-06T08:31:26.702Z,88.47
2023-05-06T08:33:54.800Z,93.97
2023-05-06T08:36:22.420Z,96.50
2023-05-06T08:38:50.879Z,94.03
2023-05-06T08:41:19.558Z,100.77
2023-05-06T08:43:48.484Z,101.37
2023-05-06T08:46:15.557Z,106.47
2023-05-06T08:48:42.606Z,100.37
2023-05-06T08:51:10.518Z,100.97
2023-05-06T08:53:40.316Z,100.07
2023-05-06T08:56:08.864Z,94.90
2023-05-06T08:58:39.596Z,90.63
2023-05-06T09:01:06.660Z,83.47
2023-05-06T09:03:33.685Z,78.07
2023-05-06T09:06:00.795Z,77.90
2023-05-06T09:08:27.653Z,86.00
2023-05-06T09:10:54.458Z,80.70
2023-05-06T09:13:21.266Z,88.70
2023-05-06T09:15:49.572Z,100.37
2023-05-06T09:18:17.069Z,98.07
2023-05-06T09:20:48.710Z,100.37
2023-05-06T09:23:17.643Z,95.03
2023-05-06T09:25:46.800Z,93.50
2023-05-06T09:28:14.618Z,90.67
2023-05-06T09:30:43.192Z,69.77
2023-05-06T09:33:10.803Z,71.17
2023-05-06T09:35:42.422Z,77.53
2023-05-06T09:38:10.523Z,53.10
2023-05-06T09:40:38.715Z,44.63
2023-05-06T09:43:06.096Z,47.97
2023-05-06T09:45:33.084Z,47.87
2023-05-06T09:48:01.068Z,45.30
2023-05-06T09:50:28.621Z,43.70
2023-05-06T09:52:56.323Z,46.30
2023-05-06T09:55:26.586Z,49.10
2023-05-06T09:57:54.712Z,48.97
2023-05-06T10:00:27.892Z,52.33
2023-05-06T10:02:55.052Z,55.13
2023-05-06T10:05:24.860Z,60.83
2023-05-06T10:07:53.426Z,60.33
2023-05-06T10:10:22.858Z,58.87
2023-05-06T10:12:51.742Z,53.97
2023-05-06T10:15:18.555Z,59.50
2023-05-06T10:17:48.152Z,59.27
2023-05-06T10:20:16.028Z,61.37
2023-05-06T10:22:57.861Z,34.30
2023-05-06T10:25:45.695Z,30.80
2023-05-06T10:28:18.178Z,25.40
2023-05-06T10:30:59.402Z,49.40
2023-05-06T10:33:27.901Z,59.13
2023-05-06T10:36:11.667Z,55.67
2023-05-06T10:38:43.385Z,57.00
2023-05-06T10:41:10.784Z,54.40
2023-05-06T10:43:45.269Z,56.27
2023-05-06T10:46:18.580Z,43.93
2023-05-06T10:49:11.239Z,49.20
2023-05-06T10:51:42.945Z,44.03
2023-05-06T10:54:18.960Z,56.47
2023-05-06T10:56:48.822Z,57.43
2023-05-06T10:59:25.722Z,35.33
2023-05-06T11:02:02.747Z,36.40
2023-05-06T11:04:31.279Z,35.87
2023-05-06T11:07:12.818Z,27.23
2023-05-06T11:09:58.978Z,29.90
2023-05-06T11:12:51.487Z,38.77
2023-05-06T11:15:40.680Z,30.60
2023-05-06T11:18:29.392Z,27.53
2023-05-06T11:21:04.967Z,30.80
2023-05-06T11:23:49.472Z,28.07
2023-05-06T11:26:16.673Z,24.63
2023-05-06T11:28:50.398Z,29.13
2023-05-06T11:31:17.796Z,28.47
2023-05-06T11:33:49.651Z,27.83
2023-05-06T11:36:18.519Z,25.37
2023-05-06T11:38:52.671Z,28.20
2023-05-06T11:41:19.996Z,23.43
2023-05-06T11:43:49.861Z,26.30
2023-05-06T11:46:18.900Z,26.67
2023-05-06T11:48:46.085Z,25.97
2023-05-06T11:51:12.883Z,21.30
2023-05-06T11:53:39.745Z,22.63
2023-05-06T11:56:07.324Z,25.57
2023-05-06T11:58:34.320Z,26.57
2023-05-06T12:01:03.207Z,24.23
2023-05-06T12:03:31.888Z,24.10
2023-05-06T12:05:59.777Z,24.67
2023-05-06T12:08:32.581Z,27.40
2023-05-06T12:11:07.970Z,27.20
2023-05-06T12:13:40.546Z,26.37
2023-05-06T12:16:08.461Z,26.87
2023-05-06T12:18:35.842Z,28.03
2023-05-06T12:21:03.014Z,29.20
2023-05-06T12:23:29.896Z,30.73
2023-05-06T12:26:05.435Z,28.90
2023-05-06T12:28:35.063Z,39.17
2023-05-06T12:31:21.567Z,33.80
2023-05-06T12:33:50.062Z,28.53
2023-05-06T12:36:18.247Z,28.07
2023-05-06T12:38:59.370Z,28.37
2023-05-06T12:41:42.346Z,31.40
2023-05-06T12:44:37.914Z,32.97
2023-05-06T12:47:18.071Z,29.13
2023-05-06T12:49:52.046Z,30.70
2023-05-06T12:52:24.017Z,31.93
2023-05-06T12:54:54.547Z,27.77
2023-05-06T12:57:22.046Z,29.67
2023-05-06T12:59:49.520Z,33.47
2023-05-06T13:02:16.495Z,29.00
2023-05-06T13:04:44.280Z,26.37
2023-05-06T13:07:12.157Z,31.03
2023-05-06T13:09:38.981Z,35.13
2023-05-06T13:12:07.133Z,25.23
2023-05-06T13:14:33.990Z,32.57
2023-05-06T13:17:01.324Z,23.47
2023-05-06T13:19:32.722Z,22.60
2023-05-06T13:22:00.707Z,26.53
2023-05-06T13:24:27.975Z,25.87
2023-05-06T13:26:56.362Z,25.03
2023-05-06T13:29:23.766Z,22.60
2023-05-06T13:31:51.556Z,22.97
2023-05-06T13:34:18.639Z,21.73
2023-05-06T13:36:46.676Z,20.90
2023-05-06T13:39:13.835Z,22.30
2023-05-06T13:41:40.815Z,22.83
2023-05-06T13:44:07.750Z,22.53
2023-05-06T13:46:34.814Z,22.30
2023-05-06T13:49:01.680Z,22.37
2023-05-06T13:51:30.714Z,21.33
2023-05-06T13:53:57.864Z,20.83
2023-05-06T13:56:24.687Z,22.83
2023-05-06T13:58:53.187Z,22.70
2023-05-06T14:01:24.379Z,21.43
2023-05-06T14:03:51.376Z,21.40
2023-05-06T14:06:18.724Z,22.73
2023-05-06T14:08:46.095Z,22.30
2023-05-06T14:11:13.365Z,20.43
2023-05-06T14:13:40.783Z,22.67
2023-05-06T14:16:07.855Z,21.87
2023-05-06T14:18:34.782Z,19.90
2023-05-06T14:21:01.815Z,20.23
2023-05-06T14:23:28.730Z,20.43
2023-05-06T14:25:55.728Z,19.07
2023-05-06T14:28:22.534Z,21.67
2023-05-06T14:30:50.979Z,20.37
2023-05-06T14:33:18.038Z,20.43
2023-05-06T14:35:46.141Z,21.63
2023-05-06T14:38:13.029Z,19.50
2023-05-06T14:40:39.885Z,22.23
2023-05-06T14:43:07.640Z,20.43
2023-05-06T14:45:35.889Z,20.47
2023-05-06T14:48:03.010Z,22.07
2023-05-06T14:50:31.194Z,20.67
2023-05-06T14:52:58.277Z,21.33
2023-05-06T14:55:25.803Z,21.40
2023-05-06T14:57:52.889Z,20.93
2023-05-06T15:00:20.524Z,21.47
2023-05-06T15:02:47.588Z,21.60
2023-05-06T15:05:15.143Z,20.40
2023-05-06T15:07:42.269Z,20.40
2023-05-06T15:10:09.577Z,19.63
2023-05-06T15:12:37.376Z,19.60
2023-05-06T15:15:05.242Z,23.03
2023-05-06T15:17:32.658Z,19.43
2023-05-06T15:19:59.767Z,20.40
2023-05-06T15:22:26.702Z,21.80
2023-05-06T15:24:53.483Z,21.17
2023-05-06T15:27:20.272Z,22.20
2023-05-06T15:29:47.102Z,19.93
2023-05-06T15:32:13.925Z,20.60
2023-05-06T15:34:40.782Z,21.80
2023-05-06T15:37:08.103Z,23.23
2023-05-06T15:39:39.277Z,21.10
2023-05-06T15:42:06.372Z,22.07
2023-05-06T15:44:33.921Z,23.63
2023-05-06T15:47:00.862Z,21.10
2023-05-06T15:52:00.549Z,22.00
2023-05-06T15:54:28.598Z,22.40
2023-05-06T15:56:56.328Z,20.97
2023-05-06T15:59:23.599Z,23.40
2023-05-06T16:02:25.449Z,22.97
2023-05-06T16:04:37.550Z,23.67
2023-05-06T16:07:04.609Z,20.77
2023-05-06T16:09:31.391Z,22.13
2023-05-06T16:11:58.251Z,22.83
2023-05-06T16:14:25.232Z,20.63
2023-05-06T16:16:52.176Z,22.57
2023-05-06T16:19:19.175Z,23.57
2023-05-06T16:21:45.940Z,20.97
2023-05-06T16:24:12.710Z,20.93
2023-05-06T16:26:39.756Z,24.23
2023-05-06T16:29:06.789Z,21.47
2023-05-06T16:31:34.034Z,20.47
2023-05-06T16:34:01.261Z,21.47
2023-05-06T16:36:28.691Z,20.60
2023-05-06T16:38:55.643Z,20.87
2023-05-06T16:41:22.458Z,22.23
2023-05-06T16:43:49.762Z,21.50
2023-05-06T16:46:16.623Z,21.20
2023-05-06T16:48:43.598Z,20.80
2023-05-06T16:51:12.200Z,20.83
2023-05-06T16:53:39.201Z,22.07
2023-05-06T16:56:06.441Z,20.10
2023-05-06T16:58:33.536Z,19.43
2023-05-06T17:01:00.514Z,20.93
2023-05-06T17:03:27.475Z,19.70
2023-05-06T17:05:54.470Z,22.17
2023-05-06T17:08:22.102Z,21.70
2023-05-06T17:10:51.164Z,24.47
2023-05-06T17:13:18.103Z,28.53
2023-05-06T17:15:45.030Z,29.67
2023-05-06T17:18:12.505Z,25.20
2023-05-06T17:20:51.649Z,22.30
2023-05-06T17:23:21.878Z,21.97
2023-05-06T17:25:48.866Z,21.87
2023-05-06T17:28:16.894Z,20.23
2023-05-06T17:30:45.339Z,20.50
2023-05-06T17:33:12.235Z,20.87
2023-05-06T17:35:39.346Z,21.63
2023-05-06T17:38:06.097Z,20.70
2023-05-06T17:40:32.955Z,21.07
2023-05-06T17:42:59.739Z,20.53
2023-05-06T17:45:28.364Z,22.97
2023-05-06T17:47:56.357Z,34.20
2023-05-06T17:50:23.411Z,23.37
2023-05-06T17:52:52.345Z,29.80
2023-05-06T17:55:21.521Z,35.23
2023-05-06T17:57:48.918Z,35.23
2023-05-06T18:00:17.169Z,51.70
2023-05-06T18:02:44.732Z,56.00
2023-05-06T18:05:12.064Z,53.40
2023-05-06T18:07:39.475Z,49.07
2023-05-06T18:10:07.093Z,47.67
2023-05-06T18:12:34.160Z,43.80
2023-05-06T18:15:01.390Z,43.30
2023-05-06T18:17:28.365Z,40.57
2023-05-06T18:19:55.521Z,41.10
2023-05-06T18:22:22.835Z,38.70
2023-05-06T18:24:54.798Z,38.93
2023-05-06T18:27:22.290Z,40.60
2023-05-06T18:29:49.119Z,41.60
2023-05-06T18:32:15.972Z,47.63
2023-05-06T18:34:42.715Z,49.03
2023-05-06T18:37:09.598Z,51.97
2023-05-06T18:39:41.481Z,51.93
2023-05-06T18:42:08.742Z,51.67
2023-05-06T18:44:35.738Z,52.10
2023-05-06T18:47:02.707Z,50.77
2023-05-06T18:49:30.901Z,50.80
2023-05-06T18:51:57.704Z,51.53
2023-05-06T18:54:25.017Z,51.20
2023-05-06T18:56:52.124Z,50.73
2023-05-06T18:59:19.734Z,49.13
2023-05-06T19:01:46.825Z,48.00
2023-05-06T19:04:13.819Z,48.10
2023-05-06T19:06:41.004Z,46.53
2023-05-06T19:09:08.134Z,45.57
2023-05-06T19:11:35.390Z,45.40
2023-05-06T19:14:02.459Z,47.87
2023-05-06T19:16:29.482Z,47.40
2023-05-06T19:18:56.303Z,46.23
2023-05-06T19:21:23.151Z,46.87
2023-05-06T19:23:50.164Z,45.97
2023-05-06T19:26:17.029Z,45.33
2023-05-06T19:28:43.877Z,47.23
2023-05-06T19:31:11.603Z,46.70
2023-05-06T19:33:39.302Z,45.53
2023-05-06T19:36:06.821Z,46.20
2023-05-06T19:38:34.178Z,45.93
2023-05-06T19:41:01.271Z,46.03
2023-05-06T19:43:28.123Z,46.80
2023-05-06T19:45:55.033Z,45.00
2023-05-06T19:48:23.818Z,45.97
2023-05-06T19:50:51.528Z,46.13
2023-05-06T19:53:18.335Z,45.33
2023-05-06T19:55:45.404Z,45.90
2023-05-06T19:58:14.130Z,45.00
2023-05-06T20:00:41.107Z,46.13
2023-05-06T20:03:08.929Z,47.10
2023-05-06T20:05:36.183Z,45.70
2023-05-06T20:08:03.129Z,46.67
2023-05-06T20:10:30.214Z,45.70
2023-05-06T20:12:58.020Z,45.70
2023-05-06T20:15:26.531Z,43.83
2023-05-06T20:17:53.404Z,46.23
2023-05-06T20:20:20.446Z,45.17
2023-05-06T20:22:47.343Z,46.63
2023-05-06T20:25:18.809Z,46.50
2023-05-06T20:27:46.371Z,47.53
2023-05-06T20:30:13.328Z,47.37
2023-05-06T20:32:41.075Z,46.57
2023-05-06T20:35:08.853Z,46.77
2023-05-06T20:37:36.056Z,45.30
2023-05-06T20:40:04.835Z,47.67
2023-05-06T20:42:31.964Z,45.53
2023-05-06T20:45:00.042Z,45.87
2023-05-06T20:47:27.296Z,45.13
2023-05-06T20:49:54.933Z,45.77
2023-05-06T20:52:22.103Z,45.27
2023-05-06T20:54:49.350Z,44.53
2023-05-06T20:57:17.246Z,45.10
2023-05-06T20:59:44.375Z,47.37
2023-05-06T21:02:11.511Z,47.33
2023-05-06T21:04:38.458Z,46.20
2023-05-06T21:07:05.523Z,46.30
2023-05-06T21:09:32.359Z,46.00
2023-05-06T21:11:59.232Z,46.10
2023-05-06T21:14:27.139Z,45.80
2023-05-06T21:16:53.922Z,44.30
2023-05-06T21:19:21.055Z,46.27
2023-05-06T21:21:48.382Z,46.23
2023-05-06T21:24:15.479Z,45.17
2023-05-06T21:26:42.373Z,48.63
2023-05-06T21:29:09.379Z,48.50
2023-05-06T21:31:36.628Z,47.43
2023-05-06T21:34:04.327Z,47.67
2023-05-06T21:36:31.270Z,46.53
2023-05-06T21:39:10.415Z,45.97
2023-05-06T21:41:37.593Z,45.07
2023-05-06T21:44:05.346Z,44.53
2023-05-06T21:46:32.830Z,42.80
2023-05-06T21:49:00.337Z,45.07
2023-05-06T21:51:29.223Z,46.03
2023-05-06T21:53:56.078Z,47.07
2023-05-06T21:56:23.044Z,47.30
2023-05-06T21:58:51.065Z,45.80
2023-05-06T22:01:18.127Z,45.60
2023-05-06T22:03:46.019Z,46.03
2023-05-06T22:06:13.173Z,44.57
2023-05-06T22:08:43.657Z,44.90
2023-05-06T22:11:10.921Z,45.77
2023-05-06T22:13:37.828Z,46.70
2023-05-06T22:16:05.006Z,46.50
2023-05-06T22:18:32.092Z,46.37
2023-05-06T22:20:59.088Z,45.97
2023-05-06T22:23:27.809Z,44.50
2023-05-06T22:25:54.684Z,46.07
2023-05-06T22:28:21.673Z,47.03
2023-05-06T22:30:48.584Z,47.67
2023-05-06T22:33:15.747Z,44.20
2023-05-06T22:35:42.847Z,46.23
2023-05-06T22:38:09.713Z,48.33
2023-05-06T22:40:36.606Z,48.03
2023-05-06T22:43:03.612Z,46.87
2023-05-06T22:45:30.445Z,45.40
2023-05-06T22:47:57.384Z,45.93
2023-05-06T22:50:24.986Z,47.97
2023-05-06T22:52:52.206Z,48.37
2023-05-06T22:55:19.062Z,50.40
2023-05-06T22:57:49.805Z,51.33
2023-05-06T23:00:19.786Z,47.87
2023-05-06T23:02:46.674Z,50.67
2023-05-06T23:05:13.796Z,50.13
2023-05-06T23:07:41.025Z,48.90
2023-05-06T23:10:08.379Z,50.13
2023-05-06T23:12:35.846Z,50.03
2023-05-06T23:15:03.018Z,49.77
2023-05-06T23:17:29.809Z,49.50
2023-05-06T23:19:58.947Z,50.07
2023-05-06T23:22:26.645Z,51.50
2023-05-06T23:24:53.864Z,49.77
2023-05-06T23:27:20.813Z,48.00
2023-05-06T23:29:47.732Z,48.07
2023-05-06T23:32:14.509Z,49.40
2023-05-06T23:34:41.354Z,49.40
2023-05-06T23:37:08.338Z,48.47
2023-05-06T23:39:35.571Z,49.73
2023-05-06T23:42:03.256Z,47.73
2023-05-06T23:44:30.025Z,47.60
2023-05-06T23:46:56.852Z,48.67
2023-05-06T23:49:23.756Z,46.83
2023-05-06T23:51:50.594Z,45.23
2023-05-06T23:54:17.406Z,46.47
2023-05-06T23:56:44.816Z,44.60
2023-05-06T23:59:11.695Z,45.83
